Time;durP1;ratioP1;P1;durP2;ratioP2;P2;SDS_P1;SDS_P2;PMS_P1;PMS_P2;Temp;Humidity;BMP_temperature;BMP_pressure;BME280_temperature;BME280_humidity;BME280_pressure;Samples;Min_cycle;Max_cycle;Signal;HPM_P1;HPM_P2
2024/04/23 00:00:17;;;;;;;27.93;24.90;;;;;;;;;;5207165;27;20925;-86
2024/04/23 00:02:43;;;;;;;32.00;26.40;;;;;;;;;;5171360;27;20469;-86
2024/04/23 00:05:09;;;;;;;27.93;24.90;;;;;;;;;;5213006;27;20296;-86
2024/04/23 00:07:35;;;;;;;28.83;25.73;;;;;;;;;;5196517;27;20490;-86
2024/04/23 00:10:01;;;;;;;33.80;26.17;;;;;;;;;;5211053;27;20248;-86
2024/04/23 00:12:27;;;;;;;28.52;25.40;;;;;;;;;;5168646;27;20479;-86
2024/04/23 00:14:53;;;;;;;28.10;24.80;;;;;;;;;;5211146;27;20283;-86
2024/04/23 00:17:19;;;;;;;26.53;23.90;;;;;;;;;;5174251;27;20531;-86
2024/04/23 00:19:45;;;;;;;27.57;23.90;;;;;;;;;;5182320;27;20488;-86
2024/04/23 00:22:11;;;;;;;29.13;25.98;;;;;;;;;;5212220;27;20806;-85
2024/04/23 00:24:37;;;;;;;31.95;25.98;;;;;;;;;;5207090;27;20320;-86
2024/04/23 00:27:03;;;;;;;29.27;26.10;;;;;;;;;;5164034;27;20289;-86
2024/04/23 00:29:29;;;;;;;29.08;23.67;;;;;;;;;;5174933;27;20280;-86
2024/04/23 00:31:56;;;;;;;30.10;24.95;;;;;;;;;;5199606;27;20312;-86
2024/04/23 00:34:22;;;;;;;28.02;24.90;;;;;;;;;;5187013;27;20341;-85
2024/04/23 00:36:57;;;;;;;31.83;25.92;;;;;;;;;;5212601;27;20305;-85
2024/04/23 00:39:24;;;;;;;29.10;25.60;;;;;;;;;;5204394;27;20336;-85
2024/04/23 00:41:50;;;;;;;30.75;25.95;;;;;;;;;;5202474;27;20309;-86
2024/04/23 00:44:16;;;;;;;28.75;24.02;;;;;;;;;;5213158;27;20788;-86
2024/04/23 00:46:43;;;;;;;27.42;24.52;;;;;;;;;;5176853;27;20343;-88
2024/04/23 00:49:13;;;;;;;31.13;25.25;;;;;;;;;;5196768;27;20306;-87
2024/04/23 00:51:40;;;;;;;25.80;23.00;;;;;;;;;;5213790;27;20264;-85
2024/04/23 00:54:07;;;;;;;28.33;25.30;;;;;;;;;;5169212;27;20291;-88
2024/04/23 00:56:33;;;;;;;27.15;24.40;;;;;;;;;;5202951;27;20659;-86
2024/04/23 00:58:59;;;;;;;31.33;26.45;;;;;;;;;;5178989;27;20264;-86
2024/04/23 01:01:25;;;;;;;27.38;24.27;;;;;;;;;;5208693;27;20347;-86
2024/04/23 01:03:52;;;;;;;29.73;25.35;;;;;;;;;;5220896;27;20252;-87
2024/04/23 01:06:18;;;;;;;29.17;25.80;;;;;;;;;;5192657;27;20246;-86
2024/04/23 01:08:44;;;;;;;36.17;26.38;;;;;;;;;;5183889;27;20276;-87
2024/04/23 01:11:10;;;;;;;29.35;26.17;;;;;;;;;;5176107;27;20256;-86
2024/04/23 01:13:36;;;;;;;30.40;26.73;;;;;;;;;;5167855;27;20253;-86
2024/04/23 01:16:02;;;;;;;30.27;26.30;;;;;;;;;;5178999;27;20784;-87
2024/04/23 01:18:28;;;;;;;28.75;25.65;;;;;;;;;;5195864;27;20481;-84
2024/04/23 01:20:56;;;;;;;30.90;25.40;;;;;;;;;;5201045;27;20242;-86
2024/04/23 01:23:36;;;;;;;28.70;25.20;;;;;;;;;;5178641;27;20333;-85
2024/04/23 01:26:11;;;;;;;31.15;24.90;;;;;;;;;;5215832;27;20292;-87
2024/04/23 01:28:39;;;;;;;29.60;24.70;;;;;;;;;;5198529;27;20297;-89
2024/04/23 01:31:09;;;;;;;27.27;24.35;;;;;;;;;;5225126;27;20248;-85
2024/04/23 01:33:35;;;;;;;35.50;27.52;;;;;;;;;;5210336;27;20284;-87
2024/04/23 01:36:03;;;;;;;30.77;25.88;;;;;;;;;;5176091;27;20347;-86
2024/04/23 01:38:29;;;;;;;29.40;25.25;;;;;;;;;;5200157;27;20349;-86
2024/04/23 01:40:55;;;;;;;30.45;26.50;;;;;;;;;;5206641;27;20734;-86
2024/04/23 01:43:21;;;;;;;31.45;26.08;;;;;;;;;;5171981;27;20332;-86
2024/04/23 01:45:47;;;;;;;30.83;26.15;;;;;;;;;;5168707;27;20570;-86
2024/04/23 01:48:13;;;;;;;33.78;27.10;;;;;;;;;;5181937;27;20341;-87
2024/04/23 01:50:39;;;;;;;30.75;27.05;;;;;;;;;;5202429;27;20234;-86
2024/04/23 01:53:05;;;;;;;30.80;26.05;;;;;;;;;;5151364;27;20308;-86
2024/04/23 01:55:31;;;;;;;33.80;28.47;;;;;;;;;;5208539;27;20240;-85
2024/04/23 01:57:57;;;;;;;29.90;26.65;;;;;;;;;;5163911;27;20494;-86
2024/04/23 02:00:24;;;;;;;31.00;26.80;;;;;;;;;;5212693;27;20236;-85
2024/04/23 02:02:52;;;;;;;33.95;27.02;;;;;;;;;;5216286;27;20249;-86
2024/04/23 02:05:18;;;;;;;30.88;26.48;;;;;;;;;;5211472;27;20291;-85
2024/04/23 02:07:45;;;;;;;30.45;26.65;;;;;;;;;;5146668;27;20263;-86
2024/04/23 02:10:11;;;;;;;27.90;24.85;;;;;;;;;;5187375;27;20245;-86
2024/04/23 02:12:40;;;;;;;32.40;26.92;;;;;;;;;;5210147;27;20245;-86
2024/04/23 02:15:06;;;;;;;32.30;27.52;;;;;;;;;;5208463;27;20248;-86
2024/04/23 02:17:32;;;;;;;29.17;25.38;;;;;;;;;;5180759;27;20292;-85
2024/04/23 02:19:58;;;;;;;31.80;26.60;;;;;;;;;;5185928;27;20249;-85
2024/04/23 02:22:24;;;;;;;30.50;27.08;;;;;;;;;;5177575;27;20368;-86
2024/04/23 02:24:50;;;;;;;28.30;25.43;;;;;;;;;;5200993;27;20628;-86
2024/04/23 02:27:16;;;;;;;32.08;27.58;;;;;;;;;;5222304;27;20540;-86
2024/04/23 02:29:42;;;;;;;30.42;27.05;;;;;;;;;;5219113;27;20333;-86
2024/04/23 02:32:08;;;;;;;29.10;25.83;;;;;;;;;;5203878;27;20554;-85
2024/04/23 02:34:34;;;;;;;26.88;23.95;;;;;;;;;;5177412;27;20472;-85
2024/04/23 02:37:00;;;;;;;28.25;25.08;;;;;;;;;;5203513;27;20738;-87
2024/04/23 02:39:26;;;;;;;29.47;26.03;;;;;;;;;;5184508;27;20245;-85
2024/04/23 02:41:53;;;;;;;29.27;26.17;;;;;;;;;;5205038;27;20539;-86
2024/04/23 02:44:19;;;;;;;31.08;27.50;;;;;;;;;;5226148;27;20476;-85
2024/04/23 02:46:45;;;;;;;31.55;26.17;;;;;;;;;;5183572;27;20295;-86
2024/04/23 02:49:11;;;;;;;33.53;27.88;;;;;;;;;;5186469;27;20648;-86
2024/04/23 02:51:50;;;;;;;30.67;26.55;;;;;;;;;;5174272;27;20607;-85
2024/04/23 02:54:16;;;;;;;32.38;26.67;;;;;;;;;;5208114;27;20252;-85
2024/04/23 02:56:44;;;;;;;36.45;28.30;;;;;;;;;;5179748;27;20277;-87
2024/04/23 02:59:10;;;;;;;35.10;29.02;;;;;;;;;;5190051;27;20245;-86
2024/04/23 03:01:36;;;;;;;33.90;28.25;;;;;;;;;;5215897;27;20295;-86
2024/04/23 03:04:02;;;;;;;38.13;30.10;;;;;;;;;;5219015;27;20255;-85
2024/04/23 03:06:28;;;;;;;35.20;27.27;;;;;;;;;;5199881;27;20538;-85
2024/04/23 03:08:55;;;;;;;44.70;32.58;;;;;;;;;;5212895;27;20298;-86
2024/04/23 03:11:21;;;;;;;38.95;30.33;;;;;;;;;;5204459;27;20312;-86
2024/04/23 03:13:47;;;;;;;44.80;33.30;;;;;;;;;;5196027;27;20724;-86
2024/04/23 03:16:13;;;;;;;42.00;32.00;;;;;;;;;;5192329;27;20338;-86
2024/04/23 03:18:39;;;;;;;39.25;30.38;;;;;;;;;;5203189;27;20815;-86
2024/04/23 03:21:05;;;;;;;39.33;29.17;;;;;;;;;;5191040;27;20240;-86
2024/04/23 03:23:31;;;;;;;44.58;30.70;;;;;;;;;;5201951;27;20381;-86
2024/04/23 03:25:57;;;;;;;37.47;29.47;;;;;;;;;;5190716;27;20401;-89
2024/04/23 03:28:23;;;;;;;36.63;30.20;;;;;;;;;;5196231;27;20485;-86
2024/04/23 03:30:49;;;;;;;32.93;27.20;;;;;;;;;;5215353;27;20471;-87
2024/04/23 03:33:15;;;;;;;38.80;26.70;;;;;;;;;;5219585;27;20575;-85
2024/04/23 03:35:40;;;;;;;35.17;27.40;;;;;;;;;;5211535;27;20242;-86
2024/04/23 03:38:06;;;;;;;39.53;27.70;;;;;;;;;;5205540;27;20497;-86
2024/04/23 03:40:32;;;;;;;31.93;28.03;;;;;;;;;;5184801;27;20574;-86
2024/04/23 03:42:58;;;;;;;33.83;28.45;;;;;;;;;;5198701;27;20999;-85
2024/04/23 03:45:24;;;;;;;34.90;26.70;;;;;;;;;;5215393;27;20249;-85
2024/04/23 03:47:50;;;;;;;35.88;28.60;;;;;;;;;;5192096;27;20572;-86
2024/04/23 03:50:16;;;;;;;33.28;25.98;;;;;;;;;;5167784;27;20249;-86
2024/04/23 03:52:42;;;;;;;29.67;26.25;;;;;;;;;;5188207;27;20256;-86
2024/04/23 03:55:08;;;;;;;33.50;27.37;;;;;;;;;;5192173;27;20245;-86
2024/04/23 03:57:34;;;;;;;35.30;26.23;;;;;;;;;;5211655;27;20492;-86
2024/04/23 04:00:00;;;;;;;37.47;28.63;;;;;;;;;;5174266;27;20527;-87
2024/04/23 04:07:55;;;;;;;39.60;28.70;;;;;;;;;;5206332;27;20656;-85
2024/04/23 04:10:21;;;;;;;37.05;27.92;;;;;;;;;;5210271;27;20242;-85
2024/04/23 04:12:47;;;;;;;33.90;26.98;;;;;;;;;;5184198;27;20246;-85
2024/04/23 04:15:13;;;;;;;34.57;27.27;;;;;;;;;;5214980;27;20256;-85
2024/04/23 04:17:39;;;;;;;32.20;27.50;;;;;;;;;;5182290;27;20520;-85
2024/04/23 04:20:06;;;;;;;32.97;26.73;;;;;;;;;;5181177;27;20257;-85
2024/04/23 04:22:32;;;;;;;31.40;26.10;;;;;;;;;;5207548;27;20528;-86
2024/04/23 04:24:58;;;;;;;32.47;26.40;;;;;;;;;;5216526;27;20245;-85
2024/04/23 04:27:24;;;;;;;30.37;27.07;;;;;;;;;;5214568;27;20233;-85
2024/04/23 04:29:50;;;;;;;32.17;28.00;;;;;;;;;;5208199;27;20476;-85
2024/04/23 04:32:16;;;;;;;31.55;28.13;;;;;;;;;;5185678;27;20561;-84
2024/04/23 04:34:42;;;;;;;35.63;29.87;;;;;;;;;;5216533;27;20644;-85
2024/04/23 04:37:08;;;;;;;33.67;30.00;;;;;;;;;;5201811;27;20473;-84
2024/04/23 04:39:40;;;;;;;39.85;33.20;;;;;;;;;;5141930;27;20498;-85
2024/04/23 04:42:06;;;;;;;42.90;33.38;;;;;;;;;;5212991;27;20244;-86
2024/04/23 04:44:32;;;;;;;34.03;30.52;;;;;;;;;;5204289;27;20283;-85
2024/04/23 04:46:58;;;;;;;37.40;30.57;;;;;;;;;;5173491;27;20253;-85
2024/04/23 04:49:24;;;;;;;37.30;31.23;;;;;;;;;;5182165;27;20493;-85
2024/04/23 04:51:50;;;;;;;32.47;28.93;;;;;;;;;;5192120;27;20555;-86
2024/04/23 04:54:16;;;;;;;37.45;29.85;;;;;;;;;;5197038;27;20524;-86
2024/04/23 04:56:42;;;;;;;32.83;29.33;;;;;;;;;;5201472;27;20788;-87
2024/04/23 04:59:07;;;;;;;34.10;30.00;;;;;;;;;;5208292;27;20504;-84
2024/04/23 05:01:33;;;;;;;32.08;28.45;;;;;;;;;;5205460;27;20459;-84
2024/04/23 05:04:00;;;;;;;33.28;29.63;;;;;;;;;;5214451;27;20292;-84
2024/04/23 05:06:26;;;;;;;37.72;30.30;;;;;;;;;;5194520;27;20245;-85
2024/04/23 05:08:52;;;;;;;33.28;29.58;;;;;;;;;;5214582;27;20245;-84
2024/04/23 05:11:18;;;;;;;34.50;29.03;;;;;;;;;;5174098;27;20278;-84
2024/04/23 05:13:44;;;;;;;32.95;29.30;;;;;;;;;;5176518;27;20822;-84
2024/04/23 05:16:10;;;;;;;34.10;30.42;;;;;;;;;;5189628;27;20241;-84
2024/04/23 05:18:36;;;;;;;42.58;30.90;;;;;;;;;;5178806;27;20296;-84
2024/04/23 05:21:02;;;;;;;41.10;31.40;;;;;;;;;;5172629;27;20241;-85
2024/04/23 05:23:28;;;;;;;36.38;32.47;;;;;;;;;;5163639;27;20601;-83
2024/04/23 05:25:54;;;;;;;41.13;32.75;;;;;;;;;;5198913;27;20256;-86
2024/04/23 05:28:20;;;;;;;35.87;31.80;;;;;;;;;;5184953;27;20249;-83
2024/04/23 05:33:31;;;;;;;37.72;32.65;;;;;;;;;;5195926;27;20629;-84
2024/04/23 05:35:57;;;;;;;40.40;33.90;;;;;;;;;;5176948;27;20260;-85
2024/04/23 05:38:23;;;;;;;45.70;35.43;;;;;;;;;;5197486;27;20283;-84
2024/04/23 05:40:49;;;;;;;42.70;35.75;;;;;;;;;;5218370;27;20558;-86
2024/04/23 05:43:15;;;;;;;39.72;35.28;;;;;;;;;;5209637;27;20627;-84
2024/04/23 05:45:41;;;;;;;50.77;41.30;;;;;;;;;;5168696;27;20306;-84
2024/04/23 05:48:25;;;;;;;52.60;42.77;;;;;;;;;;5210021;27;20516;-84
2024/04/23 05:51:10;;;;;;;46.28;36.15;;;;;;;;;;5202830;27;20481;-85
2024/04/23 05:53:57;;;;;;;41.17;36.47;;;;;;;;;;5178041;27;20247;-85
2024/04/23 05:56:23;;;;;;;45.08;37.25;;;;;;;;;;5179530;27;20291;-85
2024/04/23 05:58:49;;;;;;;43.73;35.97;;;;;;;;;;5214794;27;20245;-86
2024/04/23 06:01:15;;;;;;;47.13;35.90;;;;;;;;;;5202623;27;20545;-85
2024/04/23 06:03:42;;;;;;;43.88;36.47;;;;;;;;;;5207089;27;20559;-85
2024/04/23 06:06:08;;;;;;;52.05;36.83;;;;;;;;;;5175601;27;20598;-85
2024/04/23 06:08:34;;;;;;;52.60;38.30;;;;;;;;;;5179073;27;20240;-85
2024/04/23 06:11:00;;;;;;;48.93;36.77;;;;;;;;;;5194379;27;20475;-85
2024/04/23 06:13:26;;;;;;;60.33;41.50;;;;;;;;;;5174878;27;20859;-85
2024/04/23 06:15:52;;;;;;;57.53;38.70;;;;;;;;;;5210809;27;20556;-85
2024/04/23 06:18:22;;;;;;;53.05;39.70;;;;;;;;;;5210426;27;20473;-85
2024/04/23 06:20:51;;;;;;;58.80;42.42;;;;;;;;;;5174023;27;20244;-86
2024/04/23 06:23:18;;;;;;;48.45;39.28;;;;;;;;;;5212146;27;20246;-85
2024/04/23 06:25:44;;;;;;;57.58;42.25;;;;;;;;;;5196763;27;20247;-86
2024/04/23 06:28:10;;;;;;;58.42;42.40;;;;;;;;;;5182165;27;20242;-87
2024/04/23 06:30:36;;;;;;;56.53;39.97;;;;;;;;;;5165147;27;20282;-86
2024/04/23 06:33:03;;;;;;;61.20;41.23;;;;;;;;;;5179904;27;20282;-81
2024/04/23 06:35:29;;;;;;;64.43;43.85;;;;;;;;;;5182809;27;20584;-82
2024/04/23 06:37:54;;;;;;;75.63;47.90;;;;;;;;;;5214561;27;20749;-81
2024/04/23 06:40:21;;;;;;;78.00;47.13;;;;;;;;;;5206258;27;20535;-81
2024/04/23 06:42:46;;;;;;;70.82;48.13;;;;;;;;;;5220838;27;20246;-81
2024/04/23 06:45:12;;;;;;;73.03;48.37;;;;;;;;;;5194714;27;20292;-81
2024/04/23 06:47:38;;;;;;;78.90;49.97;;;;;;;;;;5227466;27;20486;-81
2024/04/23 06:50:05;;;;;;;77.95;49.65;;;;;;;;;;5211772;27;20477;-81
2024/04/23 06:52:31;;;;;;;70.72;51.25;;;;;;;;;;5204468;27;20287;-83
2024/04/23 06:55:00;;;;;;;74.38;49.75;;;;;;;;;;5205750;27;20238;-82
2024/04/23 06:57:26;;;;;;;80.57;50.65;;;;;;;;;;5187038;27;20559;-82
2024/04/23 06:59:52;;;;;;;75.97;53.90;;;;;;;;;;5205730;27;20247;-82
2024/04/23 07:02:18;;;;;;;75.17;53.50;;;;;;;;;;5180115;27;20256;-83
2024/04/23 07:04:44;;;;;;;76.68;54.75;;;;;;;;;;5204857;27;20544;-82
2024/04/23 07:07:10;;;;;;;88.97;57.73;;;;;;;;;;5204041;27;20248;-83
2024/04/23 07:09:36;;;;;;;86.63;56.70;;;;;;;;;;5182966;27;20448;-82
2024/04/23 07:12:02;;;;;;;93.70;56.23;;;;;;;;;;5210880;27;20871;-82
2024/04/23 07:14:28;;;;;;;94.35;57.55;;;;;;;;;;5204331;27;20852;-81
2024/04/23 07:16:54;;;;;;;84.53;55.40;;;;;;;;;;5210066;27;20244;-81
2024/04/23 07:19:20;;;;;;;97.30;56.75;;;;;;;;;;5215082;27;20980;-80
2024/04/23 07:21:46;;;;;;;88.13;57.33;;;;;;;;;;5181069;27;20301;-81
2024/04/23 07:24:12;;;;;;;84.43;55.72;;;;;;;;;;5218040;27;20476;-81
2024/04/23 07:26:39;;;;;;;93.53;61.03;;;;;;;;;;5193835;27;20263;-81
2024/04/23 07:29:06;;;;;;;92.10;58.17;;;;;;;;;;5208487;27;20247;-81
2024/04/23 07:31:32;;;;;;;86.45;56.63;;;;;;;;;;5213739;27;20253;-81
2024/04/23 07:33:58;;;;;;;86.47;57.40;;;;;;;;;;5214398;27;20248;-80
2024/04/23 07:36:24;;;;;;;84.03;55.95;;;;;;;;;;5206764;27;20252;-81
2024/04/23 07:38:50;;;;;;;77.80;53.23;;;;;;;;;;5213989;27;20605;-81
2024/04/23 07:41:16;;;;;;;95.57;55.87;;;;;;;;;;5221569;27;20474;-81
2024/04/23 07:43:42;;;;;;;70.10;50.60;;;;;;;;;;5209319;27;20555;-81
2024/04/23 07:46:08;;;;;;;81.60;52.83;;;;;;;;;;5216836;27;20320;-80
2024/04/23 07:48:34;;;;;;;80.57;52.47;;;;;;;;;;5211790;27;20333;-81
2024/04/23 07:51:00;;;;;;;78.60;51.17;;;;;;;;;;5205354;27;20473;-80
2024/04/23 07:53:27;;;;;;;76.97;49.17;;;;;;;;;;5196926;27;20857;-80
2024/04/23 07:55:53;;;;;;;70.30;49.45;;;;;;;;;;5199452;27;20720;-80
2024/04/23 07:58:20;;;;;;;70.85;52.08;;;;;;;;;;5195577;27;20293;-81
2024/04/23 08:00:46;;;;;;;62.70;48.35;;;;;;;;;;5213313;27;20249;-81
2024/04/23 08:03:12;;;;;;;72.10;50.87;;;;;;;;;;5210061;27;20291;-81
2024/04/23 08:05:38;;;;;;;66.23;45.67;;;;;;;;;;5191577;27;21003;-81
2024/04/23 08:08:04;;;;;;;70.87;46.87;;;;;;;;;;5207043;27;20817;-80
2024/04/23 08:10:30;;;;;;;73.18;53.13;;;;;;;;;;5190863;27;20478;-81
2024/04/23 08:12:56;;;;;;;59.67;45.30;;;;;;;;;;5235167;27;20283;-80
2024/04/23 08:15:23;;;;;;;52.80;41.60;;;;;;;;;;5220058;27;20248;-82
2024/04/23 08:17:50;;;;;;;42.10;37.63;;;;;;;;;;5230537;27;20248;-81
2024/04/23 08:20:16;;;;;;;36.88;32.88;;;;;;;;;;5210417;27;20337;-81
2024/04/23 08:22:42;;;;;;;33.35;30.05;;;;;;;;;;5207097;27;20238;-81
2024/04/23 08:25:09;;;;;;;29.27;25.93;;;;;;;;;;5205735;27;20318;-81
2024/04/23 08:27:36;;;;;;;25.00;22.63;;;;;;;;;;5198418;27;20509;-82
2024/04/23 08:30:03;;;;;;;21.90;19.98;;;;;;;;;;5213983;27;20607;-83
2024/04/23 08:32:29;;;;;;;22.02;20.02;;;;;;;;;;5202668;27;20245;-82
2024/04/23 08:34:55;;;;;;;19.13;17.20;;;;;;;;;;5204781;27;20319;-82
2024/04/23 08:37:21;;;;;;;18.97;17.30;;;;;;;;;;5208568;27;20805;-82
2024/04/23 08:39:47;;;;;;;18.20;16.50;;;;;;;;;;5208712;27;20531;-82
2024/04/23 08:42:13;;;;;;;19.15;17.45;;;;;;;;;;5206721;27;20481;-82
2024/04/23 08:44:41;;;;;;;16.38;14.88;;;;;;;;;;5187811;27;20257;-84
2024/04/23 08:47:08;;;;;;;16.05;14.70;;;;;;;;;;5212077;27;20330;-83
2024/04/23 08:49:34;;;;;;;16.33;15.00;;;;;;;;;;5210631;27;20345;-83
2024/04/23 08:52:00;;;;;;;15.23;13.87;;;;;;;;;;5206260;27;21110;-84
2024/04/23 08:54:27;;;;;;;16.17;14.87;;;;;;;;;;5213194;27;21089;-83
2024/04/23 08:56:53;;;;;;;15.53;13.77;;;;;;;;;;5203939;27;20542;-83
2024/04/23 08:59:19;;;;;;;14.07;12.80;;;;;;;;;;5211366;27;20478;-82
2024/04/23 09:01:49;;;;;;;14.13;12.80;;;;;;;;;;5214299;27;20471;-81
2024/04/23 09:04:16;;;;;;;16.00;14.50;;;;;;;;;;5202720;27;20535;-82
2024/04/23 09:06:42;;;;;;;15.40;14.10;;;;;;;;;;5210283;27;20565;-83
2024/04/23 09:09:10;;;;;;;16.25;14.88;;;;;;;;;;5213260;27;20241;-82
2024/04/23 09:11:36;;;;;;;16.17;14.75;;;;;;;;;;5210053;27;20780;-82
2024/04/23 09:14:02;;;;;;;17.90;16.10;;;;;;;;;;5206020;27;20279;-83
2024/04/23 09:16:28;;;;;;;16.15;14.63;;;;;;;;;;5206075;27;20463;-82
2024/04/23 09:18:55;;;;;;;14.45;13.15;;;;;;;;;;5183100;27;20581;-82
2024/04/23 09:21:21;;;;;;;14.20;13.10;;;;;;;;;;5214045;27;20287;-82
2024/04/23 09:23:47;;;;;;;13.30;12.02;;;;;;;;;;5207225;27;20248;-82
2024/04/23 09:26:14;;;;;;;11.57;10.55;;;;;;;;;;5212190;27;20296;-83
2024/04/23 09:28:43;;;;;;;11.80;10.80;;;;;;;;;;5214105;27;20287;-83
2024/04/23 09:31:15;;;;;;;9.73;8.98;;;;;;;;;;5207522;27;20233;-83
2024/04/23 09:33:57;;;;;;;10.95;9.95;;;;;;;;;;5207439;27;20253;-83
2024/04/23 09:36:23;;;;;;;9.18;8.48;;;;;;;;;;5209709;27;20244;-83
2024/04/23 09:38:52;;;;;;;10.03;9.13;;;;;;;;;;5198948;27;20242;-83
2024/04/23 09:41:18;;;;;;;9.57;8.87;;;;;;;;;;5195188;27;20486;-82
2024/04/23 09:44:02;;;;;;;9.37;8.63;;;;;;;;;;5193356;27;20474;-83
2024/04/23 09:46:32;;;;;;;9.80;9.00;;;;;;;;;;5207665;27;21043;-83
2024/04/23 09:49:01;;;;;;;9.30;8.70;;;;;;;;;;5214517;27;20598;-83
2024/04/23 09:51:30;;;;;;;9.80;9.10;;;;;;;;;;5206626;27;20805;-84
2024/04/23 09:54:00;;;;;;;9.70;9.00;;;;;;;;;;5212817;27;21004;-83
2024/04/23 09:56:26;;;;;;;9.80;9.17;;;;;;;;;;5205330;27;20510;-83
2024/04/23 09:58:52;;;;;;;7.47;6.97;;;;;;;;;;5211340;27;20522;-83
2024/04/23 10:01:21;;;;;;;7.63;7.17;;;;;;;;;;5219890;27;20461;-84
2024/04/23 10:03:49;;;;;;;7.80;7.40;;;;;;;;;;5185002;27;20537;-83
2024/04/23 10:06:22;;;;;;;6.40;6.00;;;;;;;;;;5189995;27;20464;-83
2024/04/23 10:08:48;;;;;;;7.20;6.80;;;;;;;;;;5211754;27;20527;-83
2024/04/23 10:11:18;;;;;;;7.63;7.23;;;;;;;;;;5199108;27;20453;-84
2024/04/23 10:13:47;;;;;;;10.33;9.37;;;;;;;;;;5196977;27;20470;-83
2024/04/23 10:16:16;;;;;;;10.10;9.30;;;;;;;;;;5188321;27;20960;-83
2024/04/23 10:18:51;;;;;;;10.67;9.70;;;;;;;;;;5210443;27;20581;-83
2024/04/23 10:21:20;;;;;;;9.45;8.73;;;;;;;;;;5205675;27;20464;-83
2024/04/23 10:23:47;;;;;;;9.90;9.00;;;;;;;;;;5204724;27;20253;-83
2024/04/23 10:26:14;;;;;;;10.05;8.93;;;;;;;;;;5207185;27;20353;-83
2024/04/23 10:28:41;;;;;;;8.73;8.13;;;;;;;;;;5190238;27;20242;-84
2024/04/23 10:31:08;;;;;;;9.73;8.90;;;;;;;;;;5209830;27;20236;-83
2024/04/23 10:33:35;;;;;;;9.70;9.05;;;;;;;;;;5171727;27;20256;-83
2024/04/23 10:36:02;;;;;;;9.50;8.80;;;;;;;;;;5204089;27;20244;-83
2024/04/23 10:38:28;;;;;;;9.65;9.05;;;;;;;;;;5210038;27;20256;-83
2024/04/23 10:40:55;;;;;;;9.77;8.97;;;;;;;;;;5210625;27;20236;-83
2024/04/23 10:43:21;;;;;;;9.13;8.33;;;;;;;;;;5220763;27;20473;-83
2024/04/23 10:45:48;;;;;;;8.93;8.33;;;;;;;;;;5212477;27;20471;-84
2024/04/23 10:48:14;;;;;;;7.90;7.20;;;;;;;;;;5196838;27;20478;-83
2024/04/23 10:50:40;;;;;;;8.07;7.47;;;;;;;;;;5206185;27;20465;-83
2024/04/23 10:53:08;;;;;;;8.27;7.77;;;;;;;;;;5205400;27;20578;-83
2024/04/23 10:55:34;;;;;;;7.50;7.10;;;;;;;;;;5206370;27;20495;-83
2024/04/23 10:58:01;;;;;;;8.07;7.57;;;;;;;;;;5202349;27;20458;-82
2024/04/23 11:00:32;;;;;;;7.60;7.10;;;;;;;;;;5220325;27;20459;-83
2024/04/23 11:02:58;;;;;;;7.90;7.50;;;;;;;;;;5208930;27;20460;-83
2024/04/23 11:05:34;;;;;;;6.80;6.40;;;;;;;;;;5207429;27;20660;-83
2024/04/23 11:08:07;;;;;;;8.10;7.60;;;;;;;;;;5203549;27;20520;-84
2024/04/23 11:11:09;;;;;;;7.90;7.10;;;;;;;;;;5203231;27;20503;-83
2024/04/23 11:13:42;;;;;;;7.73;7.23;;;;;;;;;;5162035;27;21010;-84
2024/04/23 11:16:14;;;;;;;7.77;7.37;;;;;;;;;;5197962;27;20476;-84
2024/04/23 11:18:44;;;;;;;8.50;8.00;;;;;;;;;;5201455;27;20546;-83
2024/04/23 11:21:10;;;;;;;8.97;8.47;;;;;;;;;;5210470;27;20453;-83
2024/04/23 11:23:41;;;;;;;8.97;8.30;;;;;;;;;;5201292;27;20807;-83
2024/04/23 11:26:10;;;;;;;8.60;8.00;;;;;;;;;;5205527;27;20552;-84
2024/04/23 11:28:39;;;;;;;8.70;8.10;;;;;;;;;;5200039;27;20462;-84
2024/04/23 11:31:05;;;;;;;9.23;8.63;;;;;;;;;;5207097;27;20573;-83
2024/04/23 11:33:31;;;;;;;10.43;9.73;;;;;;;;;;5210106;27;20469;-83
2024/04/23 11:36:02;;;;;;;10.03;9.33;;;;;;;;;;5212657;27;20577;-83
2024/04/23 11:38:38;;;;;;;9.60;9.00;;;;;;;;;;5199133;27;20852;-83
2024/04/23 11:41:09;;;;;;;8.80;8.30;;;;;;;;;;5212637;27;20826;-83
2024/04/23 11:43:35;;;;;;;8.93;8.37;;;;;;;;;;5201290;27;20459;-83
2024/04/23 11:46:01;;;;;;;9.67;9.07;;;;;;;;;;5201799;27;20480;-83
2024/04/23 11:48:27;;;;;;;10.00;9.30;;;;;;;;;;5204583;27;20789;-83
2024/04/23 11:50:54;;;;;;;10.10;9.30;;;;;;;;;;5209426;27;20470;-83
2024/04/23 11:53:21;;;;;;;10.87;10.17;;;;;;;;;;5213180;27;21065;-83
2024/04/23 11:55:47;;;;;;;10.90;9.77;;;;;;;;;;5211080;27;20889;-84
2024/04/23 11:58:14;;;;;;;10.50;9.77;;;;;;;;;;5206111;27;20476;-83
2024/04/23 12:00:41;;;;;;;9.93;9.17;;;;;;;;;;5207676;27;20471;-83
2024/04/23 12:03:08;;;;;;;10.03;9.40;;;;;;;;;;5193603;27;20562;-83
2024/04/23 12:05:35;;;;;;;10.57;9.80;;;;;;;;;;5212457;27;20489;-83
2024/04/23 12:08:01;;;;;;;8.90;8.40;;;;;;;;;;5198726;27;20546;-83
2024/04/23 12:10:31;;;;;;;9.70;9.10;;;;;;;;;;5206703;27;20507;-83
2024/04/23 12:12:57;;;;;;;9.77;9.17;;;;;;;;;;5184746;27;20532;-83
2024/04/23 12:15:23;;;;;;;10.90;9.90;;;;;;;;;;5217577;27;20579;-83
2024/04/23 12:17:49;;;;;;;10.80;9.67;;;;;;;;;;5202177;27;20456;-83
2024/04/23 12:20:15;;;;;;;9.57;8.87;;;;;;;;;;5201759;27;20500;-83
2024/04/23 12:22:44;;;;;;;9.20;8.57;;;;;;;;;;5213349;27;20842;-82
2024/04/23 12:25:17;;;;;;;9.23;8.63;;;;;;;;;;5203287;27;20489;-81
2024/04/23 12:27:45;;;;;;;9.13;8.63;;;;;;;;;;5200336;27;20526;-82
2024/04/23 12:30:15;;;;;;;9.40;8.80;;;;;;;;;;5197789;27;20473;-82
2024/04/23 12:32:42;;;;;;;9.10;8.60;;;;;;;;;;5201656;27;20464;-83
2024/04/23 12:35:08;;;;;;;9.70;8.87;;;;;;;;;;5196162;27;20480;-82
2024/04/23 12:37:35;;;;;;;8.70;8.27;;;;;;;;;;5202424;27;20533;-83
2024/04/23 12:40:04;;;;;;;9.53;9.03;;;;;;;;;;5201159;27;20537;-83
2024/04/23 12:42:30;;;;;;;8.57;8.07;;;;;;;;;;5204645;27;20468;-85
2024/04/23 12:44:56;;;;;;;9.33;8.70;;;;;;;;;;5197441;27;20502;-83
2024/04/23 12:47:22;;;;;;;9.00;8.40;;;;;;;;;;5210275;27;20464;-82
2024/04/23 12:49:48;;;;;;;8.97;8.37;;;;;;;;;;5208614;27;20476;-84
2024/04/23 12:52:15;;;;;;;8.73;8.13;;;;;;;;;;5202702;27;20601;-84
2024/04/23 12:54:41;;;;;;;9.47;8.77;;;;;;;;;;5172029;27;20473;-83
2024/04/23 12:57:08;;;;;;;9.33;8.83;;;;;;;;;;5212351;27;20532;-84
2024/04/23 12:59:38;;;;;;;9.47;8.77;;;;;;;;;;5180725;27;20472;-83
2024/04/23 13:02:07;;;;;;;9.60;8.90;;;;;;;;;;5204947;27;20782;-83
2024/04/23 13:04:37;;;;;;;8.90;8.20;;;;;;;;;;5199293;27;20810;-84
2024/04/23 13:07:03;;;;;;;9.90;9.30;;;;;;;;;;5202772;27;20477;-84
2024/04/23 13:09:29;;;;;;;8.90;8.40;;;;;;;;;;5206912;27;20510;-84
2024/04/23 13:11:55;;;;;;;9.93;9.23;;;;;;;;;;5189433;27;20611;-83
2024/04/23 13:14:21;;;;;;;9.70;9.10;;;;;;;;;;5214180;27;20464;-83
2024/04/23 13:16:47;;;;;;;9.40;8.90;;;;;;;;;;5216534;27;20483;-83
2024/04/23 13:19:13;;;;;;;9.63;9.03;;;;;;;;;;5191281;27;20474;-83
2024/04/23 13:21:39;;;;;;;9.90;9.30;;;;;;;;;;5171698;27;20469;-84
2024/04/23 13:24:05;;;;;;;9.60;9.03;;;;;;;;;;5208147;27;20533;-83
2024/04/23 13:26:31;;;;;;;10.47;9.67;;;;;;;;;;5220883;27;20474;-83
2024/04/23 13:28:57;;;;;;;10.30;9.50;;;;;;;;;;5203753;27;20568;-83
2024/04/23 13:31:23;;;;;;;10.00;9.30;;;;;;;;;;5209106;27;20806;-82
2024/04/23 13:33:49;;;;;;;10.33;9.60;;;;;;;;;;5212304;27;20485;-83
2024/04/23 13:36:15;;;;;;;9.30;8.70;;;;;;;;;;5205044;27;20457;-82
2024/04/23 13:38:45;;;;;;;9.60;9.00;;;;;;;;;;5197762;27;21018;-83
2024/04/23 13:41:11;;;;;;;10.10;9.10;;;;;;;;;;5217077;27;20589;-83
2024/04/23 13:43:37;;;;;;;9.60;8.80;;;;;;;;;;5203202;27;20482;-83
2024/04/23 13:46:04;;;;;;;9.93;9.23;;;;;;;;;;5191683;27;20535;-83
2024/04/23 13:48:31;;;;;;;10.00;9.30;;;;;;;;;;5217185;27;20563;-83
2024/04/23 13:50:56;;;;;;;10.93;10.03;;;;;;;;;;5202579;27;20457;-83
2024/04/23 13:53:22;;;;;;;9.17;8.57;;;;;;;;;;5190983;27;20462;-84
2024/04/23 13:55:48;;;;;;;9.20;8.60;;;;;;;;;;5221358;27;20487;-84
2024/04/23 13:58:14;;;;;;;10.30;9.47;;;;;;;;;;5178195;27;20472;-83
2024/04/23 14:00:40;;;;;;;9.90;9.30;;;;;;;;;;5207679;27;20512;-83
2024/04/23 14:03:06;;;;;;;10.90;10.20;;;;;;;;;;5205437;27;20521;-83
2024/04/23 14:05:35;;;;;;;10.83;10.13;;;;;;;;;;5210082;27;20529;-84
2024/04/23 14:08:01;;;;;;;10.30;9.60;;;;;;;;;;5217703;27;21139;-84
2024/04/23 14:10:27;;;;;;;10.67;9.97;;;;;;;;;;5212627;27;20468;-84
2024/04/23 14:12:53;;;;;;;10.07;9.47;;;;;;;;;;5210422;27;20530;-83
2024/04/23 14:15:22;;;;;;;10.27;9.60;;;;;;;;;;5206444;27;20597;-84
2024/04/23 14:17:48;;;;;;;10.70;10.00;;;;;;;;;;5217852;27;20797;-84
2024/04/23 14:20:14;;;;;;;10.35;9.75;;;;;;;;;;5204430;27;20279;-82
2024/04/23 14:22:40;;;;;;;9.93;9.33;;;;;;;;;;5215377;27;20732;-83
2024/04/23 14:25:09;;;;;;;10.47;9.87;;;;;;;;;;5220723;27;20580;-83
2024/04/23 14:27:35;;;;;;;10.60;9.80;;;;;;;;;;5205870;27;20610;-83
2024/04/23 14:30:01;;;;;;;10.40;9.50;;;;;;;;;;5204615;27;20614;-82